sensor_id;sensor_type;location;lat;lon;timestamp;temperature;humidity
18894;DHT22;9579;49.488;8.226;2023-02-23T06:02:42;12.00;99.90
18894;DHT22;9579;49.488;8.226;2023-02-23T06:05:29;11.90;99.90
18894;DHT22;9579;49.488;8.226;2023-02-23T06:08:16;12.00;99.90
18894;DHT22;9579;49.488;8.226;2023-02-23T06:11:04;12.00;99.90
18894;DHT22;9579;49.488;8.226;2023-02-23T08:36:02;14.60;99.90
18894;DHT22;9579;49.488;8.226;2023-02-23T08:39:07;14.90;99.90
18894;DHT22;9579;49.488;8.226;2023-02-23T08:41:54;15.20;99.90
18894;DHT22;9579;49.488;8.226;2023-02-23T08:44:39;15.20;99.90
18894;DHT22;9579;49.488;8.226;2023-02-23T08:47:26;15.10;99.90
18894;DHT22;9579;49.488;8.226;2023-02-23T08:50:14;15.40;99.90
18894;DHT22;9579;49.488;8.226;2023-02-23T08:53:03;15.10;99.90
18894;DHT22;9579;49.488;8.226;2023-02-23T08:55:55;15.20;99.90
18894;DHT22;9579;49.488;8.226;2023-02-23T08:58:42;15.20;99.90
18894;DHT22;9579;49.488;8.226;2023-02-23T09:01:29;15.20;99.90
18894;DHT22;9579;49.488;8.226;2023-02-23T09:04:16;15.20;99.90
18894;DHT22;9579;49.488;8.226;2023-02-23T09:07:04;15.20;99.90
18894;DHT22;9579;49.488;8.226;2023-02-23T09:09:56;15.10;99.90
18894;DHT22;9579;49.488;8.226;2023-02-23T09:12:43;15.10;99.90
18894;DHT22;9579;49.488;8.226;2023-02-23T09:15:30;15.10;99.90
18894;DHT22;9579;49.488;8.226;2023-02-23T09:18:17;15.00;99.90
18894;DHT22;9579;49.488;8.226;2023-02-23T09:21:06;15.10;99.90
18894;DHT22;9579;49.488;8.226;2023-02-23T09:23:53;15.20;99.90
18894;DHT22;9579;49.488;8.226;2023-02-23T09:26:42;15.50;99.90
18894;DHT22;9579;49.488;8.226;2023-02-23T09:29:29;15.90;99.90
18894;DHT22;9579;49.488;8.226;2023-02-23T09:32:16;16.10;99.90
18894;DHT22;9579;49.488;8.226;2023-02-23T09:35:04;16.20;99.90
18894;DHT22;9579;49.488;8.226;2023-02-23T09:37:53;16.40;99.90
18894;DHT22;9579;49.488;8.226;2023-02-23T09:40:45;16.60;99.90
18894;DHT22;9579;49.488;8.226;2023-02-23T09:43:40;17.10;99.90
18894;DHT22;9579;49.488;8.226;2023-02-23T09:46:33;17.30;99.90
18894;DHT22;9579;49.488;8.226;2023-02-23T09:49:26;17.60;99.90
18894;DHT22;9579;49.488;8.226;2023-02-23T09:52:16;17.40;99.90
18894;DHT22;9579;49.488;8.226;2023-02-23T09:55:05;17.70;99.90
18894;DHT22;9579;49.488;8.226;2023-02-23T09:57:53;17.10;99.90
18894;DHT22;9579;49.488;8.226;2023-02-23T10:00:49;17.10;99.90
18894;DHT22;9579;49.488;8.226;2023-02-23T10:03:38;17.40;99.90
18894;DHT22;9579;49.488;8.226;2023-02-23T10:06:29;17.60;99.90
18894;DHT22;9579;49.488;8.226;2023-02-23T10:09:23;17.80;99.90
18894;DHT22;9579;49.488;8.226;2023-02-23T10:12:18;17.90;99.90
18894;DHT22;9579;49.488;8.226;2023-02-23T10:15:18;18.20;99.90
18894;DHT22;9579;49.488;8.226;2023-02-23T10:18:20;18.60;99.90
18894;DHT22;9579;49.488;8.226;2023-02-23T10:21:14;18.90;99.90
18894;DHT22;9579;49.488;8.226;2023-02-23T10:24:04;19.10;99.90
18894;DHT22;9579;49.488;8.226;2023-02-23T10:26:54;19.30;98.60
18894;DHT22;9579;49.488;8.226;2023-02-23T10:29:46;19.40;98.60
18894;DHT22;9579;49.488;8.226;2023-02-23T10:32:39;19.60;99.10
18894;DHT22;9579;49.488;8.226;2023-02-23T10:35:29;19.80;99.40
18894;DHT22;9579;49.488;8.226;2023-02-23T10:38:18;20.20;99.00
18894;DHT22;9579;49.488;8.226;2023-02-23T10:41:06;20.30;98.60
18894;DHT22;9579;49.488;8.226;2023-02-23T10:43:54;20.30;98.10
18894;DHT22;9579;49.488;8.226;2023-02-23T10:46:42;20.60;97.90
18894;DHT22;9579;49.488;8.226;2023-02-23T10:49:38;20.60;97.30
18894;DHT22;9579;49.488;8.226;2023-02-23T10:52:30;20.60;97.40
18894;DHT22;9579;49.488;8.226;2023-02-23T10:55:21;20.50;96.70
18894;DHT22;9579;49.488;8.226;2023-02-23T10:58:11;20.30;97.70
18894;DHT22;9579;49.488;8.226;2023-02-23T11:01:04;20.20;97.00
18894;DHT22;9579;49.488;8.226;2023-02-23T11:03:51;19.90;97.90
18894;DHT22;9579;49.488;8.226;2023-02-23T11:06:38;20.00;97.80
18894;DHT22;9579;49.488;8.226;2023-02-23T11:09:30;20.00;97.90
18894;DHT22;9579;49.488;8.226;2023-02-23T11:12:20;20.10;97.10
18894;DHT22;9579;49.488;8.226;2023-02-23T11:15:24;19.90;97.40
18894;DHT22;9579;49.488;8.226;2023-02-23T11:18:18;19.60;96.50
18894;DHT22;9579;49.488;8.226;2023-02-23T11:21:12;19.20;97.30
18894;DHT22;9579;49.488;8.226;2023-02-23T11:24:17;18.80;98.20
18894;DHT22;9579;49.488;8.226;2023-02-23T11:27:18;18.60;98.60
18894;DHT22;9579;49.488;8.226;2023-02-23T11:30:09;18.60;98.50
18894;DHT22;9579;49.488;8.226;2023-02-23T11:32:59;18.50;98.60
18894;DHT22;9579;49.488;8.226;2023-02-23T11:35:57;18.50;98.10
18894;DHT22;9579;49.488;8.226;2023-02-23T11:38:45;18.40;98.20
18894;DHT22;9579;49.488;8.226;2023-02-23T11:41:33;18.60;98.60
18894;DHT22;9579;49.488;8.226;2023-02-23T11:44:23;18.90;98.50
18894;DHT22;9579;49.488;8.226;2023-02-23T11:47:16;19.10;98.20
18894;DHT22;9579;49.488;8.226;2023-02-23T11:50:05;19.30;97.10
18894;DHT22;9579;49.488;8.226;2023-02-23T11:52:56;19.30;96.20
18894;DHT22;9579;49.488;8.226;2023-02-23T11:55:47;19.50;96.70
18894;DHT22;9579;49.488;8.226;2023-02-23T11:58:37;19.70;97.00
18894;DHT22;9579;49.488;8.226;2023-02-23T12:01:42;19.90;96.30
18894;DHT22;9579;49.488;8.226;2023-02-23T12:04:32;20.00;95.80
18894;DHT22;9579;49.488;8.226;2023-02-23T12:07:37;20.30;96.60
18894;DHT22;9579;49.488;8.226;2023-02-23T12:10:28;20.50;95.40
18894;DHT22;9579;49.488;8.226;2023-02-23T12:13:24;20.70;95.50
18894;DHT22;9579;49.488;8.226;2023-02-23T12:16:16;20.90;95.00
18894;DHT22;9579;49.488;8.226;2023-02-23T12:19:17;21.10;95.10
18894;DHT22;9579;49.488;8.226;2023-02-23T12:22:11;21.20;94.70
18894;DHT22;9579;49.488;8.226;2023-02-23T12:25:05;20.90;94.70
18894;DHT22;9579;49.488;8.226;2023-02-23T12:28:02;20.40;94.80
18894;DHT22;9579;49.488;8.226;2023-02-23T12:30:55;20.20;95.10
18894;DHT22;9579;49.488;8.226;2023-02-23T12:33:46;20.00;95.30
18894;DHT22;9579;49.488;8.226;2023-02-23T12:36:38;19.80;95.70
18894;DHT22;9579;49.488;8.226;2023-02-23T12:39:31;19.70;95.60
18894;DHT22;9579;49.488;8.226;2023-02-23T12:42:23;19.60;95.50
18894;DHT22;9579;49.488;8.226;2023-02-23T12:45:16;19.30;95.50
18894;DHT22;9579;49.488;8.226;2023-02-23T12:48:12;19.20;95.50
18894;DHT22;9579;49.488;8.226;2023-02-23T12:51:04;19.20;95.80
18894;DHT22;9579;49.488;8.226;2023-02-23T12:53:54;19.20;96.20
18894;DHT22;9579;49.488;8.226;2023-02-23T12:56:55;19.30;96.30
18894;DHT22;9579;49.488;8.226;2023-02-23T13:00:04;19.40;96.20
18894;DHT22;9579;49.488;8.226;2023-02-23T13:03:25;19.60;96.00
18894;DHT22;9579;49.488;8.226;2023-02-23T13:06:21;19.60;96.10
18894;DHT22;9579;49.488;8.226;2023-02-23T13:09:27;19.60;96.20
18894;DHT22;9579;49.488;8.226;2023-02-23T13:12:29;19.50;95.90
18894;DHT22;9579;49.488;8.226;2023-02-23T13:15:24;19.40;96.10
18894;DHT22;9579;49.488;8.226;2023-02-23T13:18:19;19.30;96.30
18894;DHT22;9579;49.488;8.226;2023-02-23T13:21:13;19.30;96.50
18894;DHT22;9579;49.488;8.226;2023-02-23T13:24:05;19.20;96.30
18894;DHT22;9579;49.488;8.226;2023-02-23T13:27:00;19.20;96.00
18894;DHT22;9579;49.488;8.226;2023-02-23T13:29:52;18.90;96.40
18894;DHT22;9579;49.488;8.226;2023-02-23T13:32:43;18.90;96.50
18894;DHT22;9579;49.488;8.226;2023-02-23T13:35:33;18.70;96.60
18894;DHT22;9579;49.488;8.226;2023-02-23T13:38:36;18.70;97.30
18894;DHT22;9579;49.488;8.226;2023-02-23T13:41:31;18.70;97.50
18894;DHT22;9579;49.488;8.226;2023-02-23T13:44:26;18.70;97.20
18894;DHT22;9579;49.488;8.226;2023-02-23T13:47:29;18.60;97.20
18894;DHT22;9579;49.488;8.226;2023-02-23T13:50:24;18.50;97.10
18894;DHT22;9579;49.488;8.226;2023-02-23T13:53:36;18.50;97.20
18894;DHT22;9579;49.488;8.226;2023-02-23T13:56:27;18.30;97.20
18894;DHT22;9579;49.488;8.226;2023-02-23T13:59:40;18.10;97.10
18894;DHT22;9579;49.488;8.226;2023-02-23T14:02:36;18.10;97.70
18894;DHT22;9579;49.488;8.226;2023-02-23T14:10:59;17.90;97.70
18894;DHT22;9579;49.488;8.226;2023-02-23T14:13:59;17.90;97.50
18894;DHT22;9579;49.488;8.226;2023-02-23T14:17:40;17.90;97.80
18894;DHT22;9579;49.488;8.226;2023-02-23T14:20:43;17.80;97.90
18894;DHT22;9579;49.488;8.226;2023-02-23T14:27:20;17.60;98.20
18894;DHT22;9579;49.488;8.226;2023-02-23T14:31:36;17.50;98.30
18894;DHT22;9579;49.488;8.226;2023-02-23T16:40:04;15.90;99.90
18894;DHT22;9579;49.488;8.226;2023-02-23T16:43:03;15.70;99.90
18894;DHT22;9579;49.488;8.226;2023-02-23T16:45:51;15.70;99.90
18894;DHT22;9579;49.488;8.226;2023-02-23T16:48:39;15.60;99.90
18894;DHT22;9579;49.488;8.226;2023-02-23T16:51:26;15.60;99.90
18894;DHT22;9579;49.488;8.226;2023-02-23T16:54:13;15.60;99.90
18894;DHT22;9579;49.488;8.226;2023-02-23T16:57:02;15.50;99.90
18894;DHT22;9579;49.488;8.226;2023-02-23T16:59:51;15.50;99.90
18894;DHT22;9579;49.488;8.226;2023-02-23T17:02:39;15.40;99.90
18894;DHT22;9579;49.488;8.226;2023-02-23T17:05:27;15.40;99.90
18894;DHT22;9579;49.488;8.226;2023-02-23T17:08:14;15.30;99.90
18894;DHT22;9579;49.488;8.226;2023-02-23T17:11:03;15.30;99.90
18894;DHT22;9579;49.488;8.226;2023-02-23T17:13:51;15.30;99.90
18894;DHT22;9579;49.488;8.226;2023-02-23T17:16:42;15.30;99.90
18894;DHT22;9579;49.488;8.226;2023-02-23T17:19:32;15.20;99.90
18894;DHT22;9579;49.488;8.226;2023-02-23T17:22:19;15.20;99.90
18894;DHT22;9579;49.488;8.226;2023-02-23T17:25:06;15.20;99.90
18894;DHT22;9579;49.488;8.226;2023-02-23T17:27:54;15.20;99.90
18894;DHT22;9579;49.488;8.226;2023-02-23T17:30:44;15.10;99.90
18894;DHT22;9579;49.488;8.226;2023-02-23T17:33:32;15.10;99.90
18894;DHT22;9579;49.488;8.226;2023-02-23T17:36:19;15.00;99.90
18894;DHT22;9579;49.488;8.226;2023-02-23T17:39:08;15.00;99.90
18894;DHT22;9579;49.488;8.226;2023-02-23T17:42:00;15.00;99.90
18894;DHT22;9579;49.488;8.226;2023-02-23T17:44:47;14.80;99.90
18894;DHT22;9579;49.488;8.226;2023-02-23T17:47:36;14.80;99.90
18894;DHT22;9579;49.488;8.226;2023-02-23T17:50:25;14.70;99.90
18894;DHT22;9579;49.488;8.226;2023-02-23T17:53:12;14.60;99.90
18894;DHT22;9579;49.488;8.226;2023-02-23T17:56:00;14.60;99.90
18894;DHT22;9579;49.488;8.226;2023-02-23T17:58:47;14.60;99.90
18894;DHT22;9579;49.488;8.226;2023-02-23T18:01:34;14.60;99.90
18894;DHT22;9579;49.488;8.226;2023-02-23T18:04:23;14.60;99.90
18894;DHT22;9579;49.488;8.226;2023-02-23T18:07:10;14.40;99.90
18894;DHT22;9579;49.488;8.226;2023-02-23T18:09:57;14.50;99.90
18894;DHT22;9579;49.488;8.226;2023-02-23T18:12:47;14.40;99.90
18894;DHT22;9579;49.488;8.226;2023-02-23T18:15:34;14.40;99.90
18894;DHT22;9579;49.488;8.226;2023-02-23T18:18:21;14.40;99.90
18894;DHT22;9579;49.488;8.226;2023-02-23T18:21:14;14.50;99.90
18894;DHT22;9579;49.488;8.226;2023-02-23T18:24:07;14.40;99.90
18894;DHT22;9579;49.488;8.226;2023-02-23T18:26:54;14.30;99.90
18894;DHT22;9579;49.488;8.226;2023-02-23T18:29:53;14.30;99.90
18894;DHT22;9579;49.488;8.226;2023-02-23T18:32:41;14.30;99.90
18894;DHT22;9579;49.488;8.226;2023-02-23T18:35:31;14.30;99.90
18894;DHT22;9579;49.488;8.226;2023-02-23T18:38:22;14.30;99.90
18894;DHT22;9579;49.488;8.226;2023-02-23T18:41:09;14.30;99.90
18894;DHT22;9579;49.488;8.226;2023-02-23T18:43:57;14.20;99.90
18894;DHT22;9579;49.488;8.226;2023-02-23T18:46:44;14.20;99.90
18894;DHT22;9579;49.488;8.226;2023-02-23T18:49:31;14.20;99.90
18894;DHT22;9579;49.488;8.226;2023-02-23T18:52:18;14.20;99.90
18894;DHT22;9579;49.488;8.226;2023-02-23T18:55:07;14.20;99.90
18894;DHT22;9579;49.488;8.226;2023-02-23T18:57:54;14.10;99.90
18894;DHT22;9579;49.488;8.226;2023-02-23T19:00:41;14.10;99.90
18894;DHT22;9579;49.488;8.226;2023-02-23T19:03:29;14.10;99.90
18894;DHT22;9579;49.488;8.226;2023-02-23T19:06:17;14.10;99.90
18894;DHT22;9579;49.488;8.226;2023-02-23T19:09:05;14.10;99.90
18894;DHT22;9579;49.488;8.226;2023-02-23T19:11:55;14.10;99.90
18894;DHT22;9579;49.488;8.226;2023-02-23T19:14:43;14.10;99.90
18894;DHT22;9579;49.488;8.226;2023-02-23T19:17:30;14.00;99.90
18894;DHT22;9579;49.488;8.226;2023-02-23T19:20:17;14.10;99.90
18894;DHT22;9579;49.488;8.226;2023-02-23T19:23:04;14.00;99.90
18894;DHT22;9579;49.488;8.226;2023-02-23T19:25:51;14.00;99.90
18894;DHT22;9579;49.488;8.226;2023-02-23T19:28:40;13.90;99.90
18894;DHT22;9579;49.488;8.226;2023-02-23T19:31:27;13.90;99.90
18894;DHT22;9579;49.488;8.226;2023-02-23T19:34:14;13.90;99.90
18894;DHT22;9579;49.488;8.226;2023-02-23T19:37:01;13.90;99.90
18894;DHT22;9579;49.488;8.226;2023-02-23T19:39:48;13.80;99.90
18894;DHT22;9579;49.488;8.226;2023-02-23T19:42:35;13.80;99.90
18894;DHT22;9579;49.488;8.226;2023-02-23T19:45:29;13.80;99.90
18894;DHT22;9579;49.488;8.226;2023-02-23T19:48:16;13.80;99.90
18894;DHT22;9579;49.488;8.226;2023-02-23T19:51:04;13.80;99.90
18894;DHT22;9579;49.488;8.226;2023-02-23T19:53:52;13.70;99.90
18894;DHT22;9579;49.488;8.226;2023-02-23T19:56:39;13.70;99.90
18894;DHT22;9579;49.488;8.226;2023-02-23T19:59:28;13.70;99.90
18894;DHT22;9579;49.488;8.226;2023-02-23T20:02:16;13.70;99.90
18894;DHT22;9579;49.488;8.226;2023-02-23T20:05:03;13.60;99.90
18894;DHT22;9579;49.488;8.226;2023-02-23T20:07:51;13.50;99.90
18894;DHT22;9579;49.488;8.226;2023-02-23T20:10:39;13.50;99.90
18894;DHT22;9579;49.488;8.226;2023-02-23T20:13:30;13.40;99.90
18894;DHT22;9579;49.488;8.226;2023-02-23T20:16:17;13.40;99.90
18894;DHT22;9579;49.488;8.226;2023-02-23T20:19:06;13.40;99.90
18894;DHT22;9579;49.488;8.226;2023-02-23T20:21:53;13.40;99.90
18894;DHT22;9579;49.488;8.226;2023-02-23T20:24:40;13.40;99.90
18894;DHT22;9579;49.488;8.226;2023-02-23T20:27:27;13.40;99.90
18894;DHT22;9579;49.488;8.226;2023-02-23T20:30:16;13.30;99.90
18894;DHT22;9579;49.488;8.226;2023-02-23T20:33:04;13.30;99.90
18894;DHT22;9579;49.488;8.226;2023-02-23T20:35:57;13.30;99.90
18894;DHT22;9579;49.488;8.226;2023-02-23T20:38:44;13.20;99.90
18894;DHT22;9579;49.488;8.226;2023-02-23T20:41:32;13.20;99.90
18894;DHT22;9579;49.488;8.226;2023-02-23T20:44:21;13.20;99.90
18894;DHT22;9579;49.488;8.226;2023-02-23T20:47:08;13.10;99.90
18894;DHT22;9579;49.488;8.226;2023-02-23T20:50:05;13.10;99.90
18894;DHT22;9579;49.488;8.226;2023-02-23T20:52:56;13.20;99.90
18894;DHT22;9579;49.488;8.226;2023-02-23T20:55:43;13.20;99.90
18894;DHT22;9579;49.488;8.226;2023-02-23T20:58:30;13.10;99.90
18894;DHT22;9579;49.488;8.226;2023-02-23T21:01:19;13.10;99.90
18894;DHT22;9579;49.488;8.226;2023-02-23T21:04:07;13.10;99.90
18894;DHT22;9579;49.488;8.226;2023-02-23T21:06:54;13.10;99.90
18894;DHT22;9579;49.488;8.226;2023-02-23T21:09:42;13.00;99.90
18894;DHT22;9579;49.488;8.226;2023-02-23T21:12:30;13.00;99.90
18894;DHT22;9579;49.488;8.226;2023-02-23T21:15:17;13.10;99.90
18894;DHT22;9579;49.488;8.226;2023-02-23T21:18:05;13.10;99.90
18894;DHT22;9579;49.488;8.226;2023-02-23T21:20:52;13.00;99.90
18894;DHT22;9579;49.488;8.226;2023-02-23T21:23:41;13.00;99.90
18894;DHT22;9579;49.488;8.226;2023-02-23T21:26:30;13.00;99.90
18894;DHT22;9579;49.488;8.226;2023-02-23T21:29:20;12.90;99.90
18894;DHT22;9579;49.488;8.226;2023-02-23T21:32:11;12.80;99.90
18894;DHT22;9579;49.488;8.226;2023-02-23T21:34:58;12.80;99.90
18894;DHT22;9579;49.488;8.226;2023-02-23T21:37:48;12.80;99.90
18894;DHT22;9579;49.488;8.226;2023-02-23T21:40:38;12.80;99.90
18894;DHT22;9579;49.488;8.226;2023-02-23T21:43:35;12.80;99.90
18894;DHT22;9579;49.488;8.226;2023-02-23T21:46:23;12.80;99.90
18894;DHT22;9579;49.488;8.226;2023-02-23T21:49:15;12.70;99.90
18894;DHT22;9579;49.488;8.226;2023-02-23T21:52:08;12.70;99.90
18894;DHT22;9579;49.488;8.226;2023-02-23T21:55:07;12.60;99.90
18894;DHT22;9579;49.488;8.226;2023-02-23T21:57:58;12.80;99.90
18894;DHT22;9579;49.488;8.226;2023-02-23T22:00:50;12.70;99.90
18894;DHT22;9579;49.488;8.226;2023-02-23T22:03:37;12.70;99.90
18894;DHT22;9579;49.488;8.226;2023-02-23T22:06:34;12.70;99.90
18894;DHT22;9579;49.488;8.226;2023-02-23T22:09:23;12.70;99.90
18894;DHT22;9579;49.488;8.226;2023-02-23T22:12:10;12.70;99.90
18894;DHT22;9579;49.488;8.226;2023-02-23T22:15:02;12.80;99.90
18894;DHT22;9579;49.488;8.226;2023-02-23T22:17:55;12.60;99.90
18894;DHT22;9579;49.488;8.226;2023-02-23T22:20:45;12.60;99.90
18894;DHT22;9579;49.488;8.226;2023-02-23T22:23:41;12.50;99.90
18894;DHT22;9579;49.488;8.226;2023-02-23T22:26:34;12.50;99.90
18894;DHT22;9579;49.488;8.226;2023-02-23T22:29:30;12.50;99.90
18894;DHT22;9579;49.488;8.226;2023-02-23T22:32:19;12.40;99.90
18894;DHT22;9579;49.488;8.226;2023-02-23T22:35:09;12.40;99.90
18894;DHT22;9579;49.488;8.226;2023-02-23T22:37:57;12.30;99.90
18894;DHT22;9579;49.488;8.226;2023-02-23T22:40:45;12.30;99.90
18894;DHT22;9579;49.488;8.226;2023-02-23T22:43:35;12.30;99.90
18894;DHT22;9579;49.488;8.226;2023-02-23T22:46:23;12.30;99.90
18894;DHT22;9579;49.488;8.226;2023-02-23T22:49:10;12.20;99.90
18894;DHT22;9579;49.488;8.226;2023-02-23T22:52:02;12.30;99.90
18894;DHT22;9579;49.488;8.226;2023-02-23T22:54:50;12.20;99.90
18894;DHT22;9579;49.488;8.226;2023-02-23T22:57:38;12.30;99.90
18894;DHT22;9579;49.488;8.226;2023-02-23T23:00:26;12.40;99.90
18894;DHT22;9579;49.488;8.226;2023-02-23T23:03:13;12.40;99.90
18894;DHT22;9579;49.488;8.226;2023-02-23T23:06:01;12.30;99.90
18894;DHT22;9579;49.488;8.226;2023-02-23T23:08:53;12.30;99.90
18894;DHT22;9579;49.488;8.226;2023-02-23T23:11:41;12.30;99.90
18894;DHT22;9579;49.488;8.226;2023-02-23T23:14:29;12.30;99.90
18894;DHT22;9579;49.488;8.226;2023-02-23T23:17:17;12.30;99.90
18894;DHT22;9579;49.488;8.226;2023-02-23T23:20:06;12.30;99.90
18894;DHT22;9579;49.488;8.226;2023-02-23T23:22:56;12.20;99.90
18894;DHT22;9579;49.488;8.226;2023-02-23T23:25:46;12.20;99.90
18894;DHT22;9579;49.488;8.226;2023-02-23T23:28:34;12.20;99.90
18894;DHT22;9579;49.488;8.226;2023-02-23T23:31:26;12.20;99.90
18894;DHT22;9579;49.488;8.226;2023-02-23T23:34:14;12.20;99.90
18894;DHT22;9579;49.488;8.226;2023-02-23T23:37:06;12.20;99.90
18894;DHT22;9579;49.488;8.226;2023-02-23T23:39:55;12.20;99.90
18894;DHT22;9579;49.488;8.226;2023-02-23T23:42:46;12.20;99.90
